createdAt,value
2024-04-15T00:00:57.550Z,184.09
2024-04-15T00:01:57.446Z,182.14
2024-04-15T00:02:57.529Z,182.86
2024-04-15T00:03:57.523Z,182.17
2024-04-15T00:04:57.518Z,182.97
2024-04-15T00:05:57.492Z,180.95
2024-04-15T00:06:57.502Z,182.96
2024-04-15T00:07:57.496Z,183.01
2024-04-15T00:08:57.490Z,182.36
2024-04-15T00:09:57.508Z,182.80
2024-04-15T00:10:57.572Z,181.82
2024-04-15T00:11:57.478Z,182.02
2024-04-15T00:12:57.539Z,182.14
2024-04-15T00:13:57.477Z,181.98
2024-04-15T00:14:57.484Z,182.05
2024-04-15T00:15:57.652Z,181.83
2024-04-15T00:16:57.565Z,182.24
2024-04-15T00:17:57.559Z,179.96
2024-04-15T00:18:57.474Z,181.74
2024-04-15T00:19:57.481Z,182.54
2024-04-15T00:20:57.489Z,182.34
2024-04-15T00:21:57.511Z,181.61
2024-04-15T00:22:57.496Z,182.08
2024-04-15T00:23:57.474Z,180.50
2024-04-15T00:24:57.522Z,180.93
2024-04-15T00:25:57.519Z,182.70
2024-04-15T00:26:57.536Z,181.59
2024-04-15T00:27:57.610Z,181.30
2024-04-15T00:28:57.502Z,181.86
2024-04-15T00:29:57.494Z,181.77
2024-04-15T00:30:57.559Z,182.17
2024-04-15T00:31:57.503Z,182.01
2024-04-15T00:32:57.563Z,182.25
2024-04-15T00:33:57.577Z,182.18
2024-04-15T00:34:57.561Z,182.19
2024-04-15T00:35:57.561Z,182.23
2024-04-15T00:36:57.638Z,182.81
2024-04-15T00:37:57.663Z,183.50
2024-04-15T00:38:57.668Z,183.60
2024-04-15T00:39:57.763Z,183.63
2024-04-15T00:40:57.673Z,183.64
2024-04-15T00:41:57.680Z,183.74
2024-04-15T00:42:57.768Z,183.07
2024-04-15T00:43:57.732Z,183.99
2024-04-15T00:44:57.745Z,183.91
2024-04-15T00:45:57.763Z,183.94
2024-04-15T00:46:57.829Z,183.77
2024-04-15T00:47:57.812Z,183.46
2024-04-15T00:48:57.907Z,183.69
2024-04-15T00:49:57.869Z,184.05
2024-04-15T00:50:57.868Z,183.07
2024-04-15T00:51:57.927Z,182.35
2024-04-15T00:52:57.963Z,183.16
2024-04-15T00:53:57.947Z,181.59
2024-04-15T00:54:58.099Z,179.99
2024-04-15T00:55:58.008Z,178.83
2024-04-15T00:56:58.034Z,178.38
2024-04-15T00:57:58.206Z,177.39
2024-04-15T00:58:58.064Z,176.07
2024-04-15T00:59:58.103Z,177.05
2024-04-15T01:00:58.162Z,175.67
2024-04-15T01:01:58.238Z,175.43
2024-04-15T01:02:58.211Z,174.79
2024-04-15T01:03:58.272Z,174.31
2024-04-15T01:04:58.236Z,175.10
2024-04-15T01:05:58.245Z,174.53
2024-04-15T01:06:58.281Z,173.80
2024-04-15T01:07:58.316Z,172.52
2024-04-15T01:08:58.372Z,171.07
2024-04-15T01:09:58.414Z,170.79
2024-04-15T01:11:00.831Z,170.18
2024-04-15T01:11:58.403Z,170.06
2024-04-15T01:12:58.418Z,169.39
2024-04-15T01:13:58.413Z,170.96
2024-04-15T01:14:58.367Z,169.08
2024-04-15T01:15:58.441Z,166.57
2024-04-15T01:16:58.355Z,169.48
2024-04-15T01:17:58.437Z,170.86
2024-04-15T01:18:58.420Z,170.70
2024-04-15T01:19:58.380Z,171.16
2024-04-15T01:20:58.447Z,170.85
2024-04-15T01:21:58.426Z,171.42
2024-04-15T01:22:58.378Z,172.40
2024-04-15T01:23:58.410Z,171.70
2024-04-15T01:24:58.413Z,171.06
2024-04-15T01:25:58.406Z,169.80
2024-04-15T01:26:58.380Z,171.36
2024-04-15T01:27:58.421Z,170.32
2024-04-15T01:28:58.387Z,171.46
2024-04-15T01:29:58.380Z,171.04
2024-04-15T01:30:58.420Z,170.55
2024-04-15T01:31:58.435Z,171.30
2024-04-15T01:32:58.398Z,169.67
2024-04-15T01:33:58.417Z,169.27
2024-04-15T01:34:58.394Z,170.46
2024-04-15T01:35:58.373Z,169.56
2024-04-15T01:36:58.416Z,169.86
2024-04-15T01:37:58.413Z,168.57
2024-04-15T01:38:58.386Z,169.07
2024-04-15T01:39:58.435Z,168.46
2024-04-15T01:40:58.397Z,166.61
2024-04-15T01:41:58.412Z,165.13
2024-04-15T01:42:58.439Z,165.17
2024-04-15T01:43:58.411Z,163.70
2024-04-15T01:44:58.379Z,162.23
2024-04-15T01:45:58.413Z,162.42
2024-04-15T01:46:58.399Z,161.16
2024-04-15T01:47:58.437Z,159.83
2024-04-15T01:48:58.453Z,158.60
2024-04-15T01:49:58.413Z,158.51
2024-04-15T01:50:58.427Z,158.31
2024-04-15T01:51:58.455Z,157.96
2024-04-15T01:52:58.412Z,157.23
2024-04-15T01:53:58.427Z,156.43
2024-04-15T01:54:58.520Z,156.39
2024-04-15T01:55:59.366Z,156.47
2024-04-15T01:56:58.416Z,156.24
2024-04-15T01:57:58.457Z,156.32
2024-04-15T01:58:58.409Z,156.43
2024-04-15T01:59:58.418Z,157.48
2024-04-15T02:00:58.529Z,155.63
2024-04-15T02:01:58.416Z,157.02
2024-04-15T02:02:58.446Z,157.45
2024-04-15T02:03:58.516Z,156.15
2024-04-15T02:04:58.401Z,157.84
2024-04-15T02:05:58.416Z,158.94
2024-04-15T02:06:58.458Z,158.30
2024-04-15T02:07:58.431Z,159.10
2024-04-15T02:08:58.435Z,157.99
2024-04-15T02:09:58.423Z,157.60
2024-04-15T02:10:58.482Z,157.66
2024-04-15T02:11:58.414Z,158.04
2024-04-15T02:12:58.448Z,157.70
2024-04-15T02:13:58.438Z,157.12
2024-04-15T02:14:58.450Z,157.63
2024-04-15T02:15:58.442Z,157.70
2024-04-15T02:16:58.423Z,157.29
2024-04-15T02:17:58.529Z,156.37
2024-04-15T02:18:58.456Z,156.62
2024-04-15T02:19:58.425Z,156.49
2024-04-15T02:20:58.425Z,155.79
2024-04-15T02:21:58.453Z,155.35
2024-04-15T02:22:58.434Z,154.68
2024-04-15T02:23:58.436Z,155.04
2024-04-15T02:24:58.469Z,154.81
2024-04-15T02:25:58.446Z,155.41
2024-04-15T02:26:58.419Z,154.00
2024-04-15T02:27:58.460Z,154.97
2024-04-15T02:28:58.435Z,155.19
2024-04-15T02:29:58.413Z,155.39
2024-04-15T02:30:58.433Z,154.43
2024-04-15T02:31:58.450Z,153.54
2024-04-15T02:32:58.502Z,154.00
2024-04-15T02:33:58.467Z,153.89
2024-04-15T02:34:58.413Z,154.42
2024-04-15T02:35:58.436Z,154.07
2024-04-15T02:36:58.448Z,153.76
2024-04-15T02:37:58.441Z,152.98
2024-04-15T02:38:58.481Z,154.57
2024-04-15T02:39:58.508Z,154.74
2024-04-15T02:40:58.486Z,155.16
2024-04-15T02:41:58.460Z,155.16
2024-04-15T02:42:58.496Z,153.90
2024-04-15T02:43:58.450Z,155.77
2024-04-15T02:44:58.473Z,155.79
2024-04-15T02:45:58.524Z,156.84
2024-04-15T02:46:58.574Z,159.17
2024-04-15T02:47:58.702Z,159.71
2024-04-15T02:48:58.704Z,159.77
2024-04-15T02:49:58.624Z,160.06
2024-04-15T02:50:58.719Z,160.42
2024-04-15T02:51:58.771Z,160.68
2024-04-15T02:52:58.759Z,159.75
2024-04-15T02:53:58.790Z,159.29
2024-04-15T02:54:58.846Z,156.95
2024-04-15T02:55:58.892Z,158.00
2024-04-15T02:56:58.892Z,157.57
2024-04-15T02:57:58.983Z,156.68
2024-04-15T02:58:58.961Z,155.99
2024-04-15T02:59:58.987Z,156.58
2024-04-15T03:00:59.159Z,154.22
2024-04-15T03:01:59.038Z,153.59
2024-04-15T03:02:59.111Z,154.14
2024-04-15T03:03:59.217Z,157.47
2024-04-15T03:04:59.219Z,158.31
2024-04-15T03:05:59.125Z,157.29
2024-04-15T03:06:59.217Z,157.09
2024-04-15T03:07:59.228Z,157.65
2024-04-15T03:08:59.237Z,155.38
2024-04-15T03:09:59.310Z,157.46
2024-04-15T03:10:59.308Z,156.79
2024-04-15T03:11:59.326Z,156.89
2024-04-15T03:12:59.410Z,156.70
2024-04-15T03:13:59.398Z,156.62
2024-04-15T03:14:59.430Z,154.69
2024-04-15T03:16:05.733Z,154.59
2024-04-15T03:17:00.557Z,154.61
2024-04-15T03:17:59.629Z,153.41
2024-04-15T03:18:59.500Z,151.81
2024-04-15T03:19:59.485Z,149.39
2024-04-15T03:21:00.311Z,149.94
2024-04-15T03:21:59.508Z,148.41
2024-04-15T03:22:59.499Z,146.29
2024-04-15T03:23:59.473Z,147.59
2024-04-15T03:24:59.479Z,145.82
2024-04-15T03:25:59.477Z,144.18
2024-04-15T03:26:59.464Z,143.94
2024-04-15T03:27:59.532Z,143.76
2024-04-15T03:28:59.498Z,143.32
2024-04-15T03:29:59.435Z,142.86
2024-04-15T03:30:59.503Z,143.43
2024-04-15T03:31:59.473Z,142.00
2024-04-15T03:32:59.501Z,143.24
2024-04-15T03:33:59.524Z,143.67
2024-04-15T03:34:59.497Z,144.19
2024-04-15T03:35:59.488Z,145.13
2024-04-15T03:36:59.570Z,146.09
2024-04-15T03:37:59.596Z,146.84
2024-04-15T03:38:59.601Z,147.32
2024-04-15T03:39:59.688Z,147.61
2024-04-15T03:40:59.700Z,148.80
2024-04-15T03:41:59.780Z,149.45
2024-04-15T03:42:59.827Z,149.53
2024-04-15T03:43:59.793Z,149.37
2024-04-15T03:44:59.848Z,149.81
2024-04-15T03:45:59.911Z,150.75
2024-04-15T03:46:59.939Z,150.36
2024-04-15T03:47:59.993Z,151.24
2024-04-15T03:49:00.029Z,151.63
2024-04-15T03:49:59.999Z,152.61
2024-04-15T03:51:00.054Z,152.41
2024-04-15T03:52:00.096Z,151.94
2024-04-15T03:53:00.128Z,152.60
2024-04-15T03:54:00.224Z,152.75
2024-04-15T03:55:00.290Z,153.36
2024-04-15T03:56:00.217Z,153.09
2024-04-15T03:57:00.259Z,153.97
2024-04-15T03:58:00.338Z,154.14
2024-04-15T03:59:00.352Z,154.88
2024-04-15T04:00:00.372Z,155.56
2024-04-15T04:01:00.424Z,156.99
2024-04-15T04:02:00.401Z,158.06
2024-04-15T04:03:00.516Z,157.16
2024-04-15T04:04:00.631Z,158.48
2024-04-15T04:05:00.657Z,159.61
2024-04-15T04:06:10.128Z,160.36
2024-04-15T04:07:01.663Z,160.43
2024-04-15T04:08:00.594Z,160.44
2024-04-15T04:09:00.605Z,160.80
2024-04-15T04:10:00.671Z,160.48
2024-04-15T04:11:00.603Z,160.41
2024-04-15T04:12:00.603Z,159.63
2024-04-15T04:13:00.575Z,159.40
2024-04-15T04:14:00.550Z,159.61
2024-04-15T04:15:00.581Z,157.59
2024-04-15T04:16:00.613Z,159.38
2024-04-15T04:17:00.587Z,160.29
2024-04-15T04:18:00.759Z,160.79
2024-04-15T04:19:00.679Z,163.20
2024-04-15T04:20:00.582Z,162.45
2024-04-15T04:21:00.582Z,163.66
2024-04-15T04:22:00.630Z,163.75
2024-04-15T04:23:00.591Z,164.94
2024-04-15T04:24:00.630Z,164.84
2024-04-15T04:25:07.827Z,50.00
2024-04-15T04:26:07.778Z,50.00
2024-04-15T04:27:07.792Z,50.00
2024-04-15T04:28:07.901Z,50.00
2024-04-15T04:29:07.805Z,50.00
2024-04-15T04:30:07.816Z,50.99
2024-04-15T04:31:15.062Z,50.00
2024-04-15T04:32:15.043Z,50.00
2024-04-15T04:33:15.036Z,50.00
2024-04-15T04:34:15.064Z,50.00
2024-04-15T04:35:15.022Z,50.00
2024-04-15T04:36:15.031Z,51.40
2024-04-15T04:37:15.132Z,52.07
2024-04-15T04:38:15.038Z,54.01
2024-04-15T04:39:14.998Z,53.99
2024-04-15T04:40:15.097Z,56.87
2024-04-15T04:41:15.013Z,56.69
2024-04-15T04:42:15.027Z,60.86
2024-04-15T04:43:15.172Z,63.36
2024-04-15T04:44:15.033Z,66.06
2024-04-15T04:45:15.030Z,65.72
2024-04-15T04:46:15.163Z,68.98
2024-04-15T04:47:15.129Z,69.73
2024-04-15T04:48:15.023Z,71.80
2024-04-15T04:49:15.150Z,76.20
2024-04-15T04:50:15.109Z,83.51
2024-04-15T04:51:15.045Z,89.89
2024-04-15T04:52:15.095Z,94.42
2024-04-15T04:53:15.042Z,96.95
2024-04-15T04:54:17.306Z,100.72
2024-04-15T04:55:15.339Z,103.92
2024-04-15T04:56:15.275Z,108.14
2024-04-15T04:57:15.275Z,108.73
2024-04-15T04:58:15.410Z,111.38
2024-04-15T04:59:15.345Z,111.99
2024-04-15T05:00:15.350Z,113.79
2024-04-15T05:02:44.398Z,117.32
2024-04-15T05:03:21.755Z,118.38
2024-04-15T05:04:21.849Z,122.45
2024-04-15T05:05:21.715Z,128.46
2024-04-15T05:06:21.721Z,134.03
2024-04-15T05:07:21.706Z,140.14
2024-04-15T05:08:21.675Z,142.80
2024-04-15T05:09:22.659Z,142.75
2024-04-15T05:10:21.754Z,140.53
2024-04-15T05:11:21.708Z,139.25
2024-04-15T05:12:21.724Z,138.52
2024-04-15T05:13:21.746Z,140.46
2024-04-15T05:14:21.669Z,138.30
2024-04-15T05:15:21.710Z,137.89
2024-04-15T05:16:21.715Z,138.00
2024-04-15T05:17:21.724Z,136.45
2024-04-15T05:18:21.805Z,138.65
2024-04-15T05:19:21.805Z,137.93
2024-04-15T05:20:21.830Z,139.87
2024-04-15T05:21:21.735Z,140.67
2024-04-15T05:22:21.753Z,140.60
2024-04-15T05:23:21.687Z,138.26
2024-04-15T05:24:21.753Z,140.41
2024-04-15T05:25:21.778Z,140.75
2024-04-15T05:26:21.698Z,142.80
2024-04-15T05:27:21.698Z,144.49
2024-04-15T05:28:21.792Z,147.36
2024-04-15T05:29:21.807Z,148.25
2024-04-15T05:30:21.787Z,147.06
2024-04-15T05:31:21.754Z,146.89
2024-04-15T05:32:21.815Z,146.98
2024-04-15T05:33:22.733Z,147.08
2024-04-15T05:34:22.272Z,147.43
2024-04-15T05:35:21.745Z,147.78
2024-04-15T05:36:24.691Z,145.04
2024-04-15T05:37:21.781Z,146.34
2024-04-15T05:38:21.750Z,143.27
2024-04-15T05:39:22.202Z,141.35
2024-04-15T05:40:21.830Z,141.64
2024-04-15T05:41:21.760Z,134.68
2024-04-15T05:42:21.778Z,134.03
2024-04-15T05:43:21.861Z,130.01
2024-04-15T05:44:22.195Z,128.90
2024-04-15T05:45:43.819Z,129.51
2024-04-15T05:47:50.707Z,129.51
2024-04-15T05:48:28.256Z,130.75
2024-04-15T05:49:28.017Z,135.31
2024-04-15T05:50:27.979Z,141.55
2024-04-15T05:51:27.989Z,149.29
2024-04-15T05:52:28.765Z,157.56
2024-04-15T05:53:28.018Z,161.90
2024-04-15T05:54:28.334Z,163.21
2024-04-15T05:55:28.013Z,164.25
2024-04-15T05:56:27.983Z,162.87
2024-04-15T05:57:27.982Z,164.03
2024-04-15T05:58:28.101Z,165.16
2024-04-15T05:59:28.314Z,164.34
2024-04-15T06:00:28.076Z,162.52
2024-04-15T06:01:28.078Z,160.76
2024-04-15T06:02:28.151Z,160.84
2024-04-15T06:03:28.130Z,161.30
2024-04-15T06:04:28.348Z,161.11
2024-04-15T06:05:28.190Z,159.62
2024-04-15T06:06:28.201Z,156.70
2024-04-15T06:07:28.243Z,157.08
2024-04-15T06:08:28.306Z,153.52
2024-04-15T06:09:28.320Z,150.81
2024-04-15T06:10:28.365Z,149.02
2024-04-15T06:11:28.398Z,151.09
2024-04-15T06:12:28.351Z,149.85
2024-04-15T06:13:28.356Z,151.32
2024-04-15T06:14:28.783Z,151.36
2024-04-15T06:15:28.443Z,152.80
2024-04-15T06:16:28.597Z,150.75
2024-04-15T06:17:28.573Z,154.05
2024-04-15T06:18:28.490Z,155.46
2024-04-15T06:19:28.591Z,155.61
2024-04-15T06:20:28.642Z,157.13
2024-04-15T06:21:28.735Z,157.34
2024-04-15T06:22:29.073Z,153.54
2024-04-15T06:23:28.840Z,152.55
2024-04-15T06:24:29.311Z,147.45
2024-04-15T06:25:28.966Z,150.31
2024-04-15T06:26:28.954Z,148.70
2024-04-15T06:27:29.041Z,152.06
2024-04-15T06:28:29.162Z,152.40
2024-04-15T06:29:29.214Z,151.10
2024-04-15T06:30:29.167Z,151.92
2024-04-15T06:31:29.230Z,150.61
2024-04-15T06:32:29.447Z,148.22
2024-04-15T06:33:29.437Z,145.19
2024-04-15T06:34:29.416Z,141.27
2024-04-15T06:35:29.506Z,139.27
2024-04-15T06:36:29.850Z,138.30
2024-04-15T06:37:29.722Z,140.25
2024-04-15T06:38:29.693Z,137.31
2024-04-15T06:39:29.801Z,133.58
2024-04-15T06:40:29.811Z,138.24
2024-04-15T06:41:29.719Z,135.32
2024-04-15T06:42:29.740Z,135.65
2024-04-15T06:43:29.875Z,134.31
2024-04-15T06:44:29.805Z,134.70
2024-04-15T06:45:29.941Z,135.54
2024-04-15T06:46:29.909Z,135.66
2024-04-15T06:47:29.876Z,138.55
2024-04-15T06:48:29.906Z,139.38
2024-04-15T06:49:30.695Z,141.24
2024-04-15T06:50:29.938Z,139.73
2024-04-15T06:51:30.437Z,139.36
2024-04-15T06:52:30.107Z,135.46
2024-04-15T06:53:30.132Z,135.74
2024-04-15T06:54:30.404Z,134.44
2024-04-15T06:55:30.319Z,134.87
2024-04-15T06:56:30.399Z,131.95
2024-04-15T06:57:30.461Z,130.35
2024-04-15T06:58:30.445Z,129.73
2024-04-15T06:59:30.549Z,132.99
2024-04-15T07:00:30.681Z,132.23
2024-04-15T07:01:31.970Z,133.67
2024-04-15T07:02:30.751Z,135.61
2024-04-15T07:03:30.881Z,140.50
2024-04-15T07:04:30.781Z,140.40
2024-04-15T07:05:30.740Z,141.64
2024-04-15T07:06:30.807Z,139.93
2024-04-15T07:07:30.873Z,143.47
2024-04-15T07:08:30.912Z,141.14
2024-04-15T07:09:32.385Z,140.92
2024-04-15T07:10:30.980Z,141.30
2024-04-15T07:11:31.105Z,142.29
2024-04-15T07:12:31.152Z,145.66
2024-04-15T07:13:31.118Z,142.70
2024-04-15T07:14:31.160Z,145.77
2024-04-15T07:15:31.686Z,146.19
2024-04-15T07:16:31.239Z,147.14
2024-04-15T07:17:31.240Z,147.08
2024-04-15T07:18:31.186Z,150.56
2024-04-15T07:19:31.220Z,151.49
2024-04-15T07:20:31.301Z,153.02
2024-04-15T07:21:31.426Z,151.80
2024-04-15T07:22:31.435Z,155.41
2024-04-15T07:23:31.490Z,155.85
2024-04-15T07:24:31.547Z,156.44
2024-04-15T07:25:31.681Z,158.51
2024-04-15T07:26:31.633Z,160.66
2024-04-15T07:27:31.671Z,164.16
2024-04-15T07:28:31.684Z,165.22
2024-04-15T07:29:31.862Z,165.98
2024-04-15T07:30:31.834Z,168.89
2024-04-15T07:31:31.884Z,170.41
2024-04-15T07:32:31.944Z,174.05
2024-04-15T07:33:31.906Z,182.43
2024-04-15T07:34:31.981Z,185.20
2024-04-15T07:35:32.339Z,187.39
2024-04-15T07:36:31.974Z,187.43
2024-04-15T07:37:31.938Z,187.79
2024-04-15T07:38:31.968Z,187.94
2024-04-15T07:39:32.332Z,187.26
2024-04-15T07:40:32.041Z,184.23
2024-04-15T07:41:32.062Z,180.04
2024-04-15T07:42:39.737Z,179.72
2024-04-15T07:43:33.004Z,178.34
2024-04-15T07:44:31.991Z,173.68
2024-04-15T07:45:32.792Z,173.09
2024-04-15T07:46:32.124Z,171.46
2024-04-15T07:47:32.037Z,167.86
2024-04-15T07:48:32.022Z,166.60
2024-04-15T07:49:31.970Z,166.19
2024-04-15T07:50:32.007Z,164.38
2024-04-15T07:51:32.026Z,165.17
2024-04-15T07:52:31.981Z,166.45
2024-04-15T07:53:31.995Z,167.37
2024-04-15T07:54:32.063Z,165.71
2024-04-15T07:55:32.097Z,166.80
2024-04-15T07:56:31.988Z,165.85
2024-04-15T07:57:31.954Z,169.41
2024-04-15T07:58:32.021Z,168.77
2024-04-15T07:59:31.986Z,167.53
2024-04-15T08:00:31.994Z,164.81
2024-04-15T08:01:32.095Z,163.88
2024-04-15T08:02:32.246Z,163.86
2024-04-15T08:03:32.116Z,163.06
2024-04-15T08:04:32.188Z,163.57
2024-04-15T08:05:32.133Z,160.28
2024-04-15T08:06:32.242Z,160.85
2024-04-15T08:07:32.272Z,162.48
2024-04-15T08:08:32.374Z,161.33
2024-04-15T08:09:32.339Z,158.81
2024-04-15T08:10:32.907Z,159.32
2024-04-15T08:11:32.423Z,158.95
2024-04-15T08:12:32.488Z,159.29
2024-04-15T08:13:32.531Z,159.21
2024-04-15T08:14:32.542Z,160.47
2024-04-15T08:15:32.746Z,159.15
2024-04-15T08:16:32.721Z,157.46
2024-04-15T08:17:33.155Z,157.91
2024-04-15T08:18:32.737Z,160.37
2024-04-15T08:19:32.841Z,160.50
2024-04-15T08:20:32.878Z,160.10
2024-04-15T08:21:32.931Z,159.09
2024-04-15T08:22:32.959Z,158.46
2024-04-15T08:23:32.973Z,158.87
2024-04-15T08:24:33.027Z,162.34
2024-04-15T08:25:33.147Z,160.50
2024-04-15T08:26:36.396Z,159.99
2024-04-15T08:27:33.160Z,160.12
2024-04-15T08:28:33.156Z,160.47
2024-04-15T08:29:33.164Z,161.46
2024-04-15T08:30:33.169Z,161.84
2024-04-15T08:31:33.139Z,165.07
2024-04-15T08:32:33.257Z,171.77
2024-04-15T08:33:33.206Z,177.42
2024-04-15T08:34:33.200Z,180.56
2024-04-15T08:35:33.386Z,179.39
2024-04-15T08:36:33.169Z,177.93
2024-04-15T08:37:33.191Z,171.69
2024-04-15T08:38:33.174Z,170.71
2024-04-15T08:39:33.190Z,166.18
2024-04-15T08:40:33.359Z,164.73
2024-04-15T08:41:33.198Z,163.67
2024-04-15T08:42:33.144Z,161.47
2024-04-15T08:43:33.218Z,160.52
2024-04-15T08:44:33.154Z,162.43
2024-04-15T08:45:33.179Z,165.77
2024-04-15T08:46:33.254Z,166.51
2024-04-15T08:47:33.238Z,168.79
2024-04-15T08:48:33.180Z,169.71
2024-04-15T08:49:33.226Z,172.09
2024-04-15T08:50:33.383Z,172.46
2024-04-15T08:51:33.218Z,172.89
2024-04-15T08:52:33.176Z,172.79
2024-04-15T08:53:33.191Z,173.85
2024-04-15T08:54:33.223Z,175.39
2024-04-15T08:55:33.457Z,180.05
2024-04-15T08:56:33.212Z,185.93
2024-04-15T08:57:33.207Z,186.59
2024-04-15T08:58:33.228Z,190.33
2024-04-15T08:59:33.218Z,190.04
2024-04-15T09:00:35.402Z,190.18
2024-04-15T09:01:33.261Z,190.73
2024-04-15T09:02:33.223Z,190.57
2024-04-15T09:03:33.358Z,190.19
2024-04-15T09:04:33.345Z,190.85
2024-04-15T09:05:33.303Z,189.26
2024-04-15T09:06:33.266Z,190.21
2024-04-15T09:07:33.230Z,190.96
2024-04-15T09:08:33.185Z,192.29
2024-04-15T09:09:55.852Z,191.23
2024-04-15T09:10:33.263Z,191.58
2024-04-15T09:11:33.241Z,192.01
2024-04-15T09:12:33.278Z,191.61
2024-04-15T09:13:33.219Z,193.94
2024-04-15T09:14:35.520Z,198.94
2024-04-15T09:15:33.238Z,191.62
2024-04-15T09:16:33.967Z,193.21
2024-04-15T09:17:33.262Z,194.60
2024-04-15T09:18:33.287Z,194.64
2024-04-15T09:19:33.207Z,194.98
2024-04-15T09:20:43.336Z,186.52
2024-04-15T09:21:34.235Z,186.53
2024-04-15T09:22:33.258Z,184.91
2024-04-15T09:23:33.218Z,186.80
2024-04-15T09:24:33.334Z,186.63
2024-04-15T09:25:33.281Z,187.77
2024-04-15T09:26:33.316Z,185.05
2024-04-15T09:27:33.209Z,182.91
2024-04-15T09:28:33.493Z,184.79
2024-04-15T09:29:33.236Z,185.88
2024-04-15T09:30:33.311Z,184.03
2024-04-15T09:31:33.310Z,181.72
2024-04-15T09:32:33.371Z,180.75
2024-04-15T09:33:33.270Z,180.26
2024-04-15T09:34:33.258Z,179.61
2024-04-15T09:35:33.287Z,179.50
2024-04-15T09:36:33.224Z,178.52
2024-04-15T09:37:33.549Z,177.88
2024-04-15T09:38:33.248Z,177.81
2024-04-15T09:39:33.296Z,175.72
2024-04-15T09:40:33.329Z,175.84
2024-04-15T09:41:33.317Z,182.70
2024-04-15T09:42:33.278Z,194.07
2024-04-15T09:43:33.361Z,200.41
2024-04-15T09:44:33.441Z,197.09
2024-04-15T09:45:33.540Z,196.81
2024-04-15T09:46:33.384Z,189.52
2024-04-15T09:47:33.482Z,186.84
2024-04-15T09:48:33.350Z,176.60
2024-04-15T09:49:33.354Z,178.53
2024-04-15T09:50:33.376Z,175.93
2024-04-15T09:51:33.363Z,174.75
2024-04-15T09:52:33.478Z,170.08
2024-04-15T09:53:33.452Z,162.19
2024-04-15T09:54:33.449Z,156.27
2024-04-15T09:55:33.974Z,155.30
2024-04-15T09:56:33.653Z,153.23
2024-04-15T09:57:33.636Z,149.20
2024-04-15T09:58:56.195Z,153.39
2024-04-15T09:59:33.655Z,153.81
2024-04-15T10:00:33.665Z,155.75
2024-04-15T10:01:33.873Z,159.41
2024-04-15T10:02:33.681Z,163.89
2024-04-15T10:03:33.645Z,169.74
2024-04-15T10:04:34.121Z,172.71
2024-04-15T10:05:33.615Z,173.34
2024-04-15T10:06:33.642Z,173.77
2024-04-15T10:07:33.620Z,179.58
2024-04-15T10:08:33.610Z,186.19
2024-04-15T10:09:33.721Z,177.42
2024-04-15T10:10:33.861Z,181.75
2024-04-15T10:11:33.721Z,181.16
2024-04-15T10:12:33.632Z,177.00
2024-04-15T10:13:33.640Z,171.78
2024-04-15T10:14:33.581Z,169.29
2024-04-15T10:15:33.608Z,170.82
2024-04-15T10:16:38.484Z,166.04
2024-04-15T10:17:34.710Z,166.09
2024-04-15T10:18:33.628Z,166.48
2024-04-15T10:19:33.698Z,166.92
2024-04-15T10:20:33.646Z,166.18
2024-04-15T10:21:33.653Z,164.96
2024-04-15T10:22:33.758Z,163.95
2024-04-15T10:23:33.736Z,165.67
2024-04-15T10:24:33.653Z,168.10
2024-04-15T10:25:35.266Z,172.50
2024-04-15T10:26:33.670Z,173.34
2024-04-15T10:27:33.640Z,168.51
2024-04-15T10:28:33.702Z,174.95
2024-04-15T10:29:33.689Z,175.04
2024-04-15T10:30:33.980Z,172.03
2024-04-15T10:31:33.685Z,176.17
2024-04-15T10:32:34.285Z,175.04
2024-04-15T10:33:33.694Z,179.08
2024-04-15T10:34:33.680Z,181.02
2024-04-15T10:35:34.308Z,182.75
2024-04-15T10:36:34.877Z,185.80
2024-04-15T10:37:34.012Z,187.03
2024-04-15T10:38:33.648Z,191.89
2024-04-15T10:39:34.342Z,192.40
2024-04-15T10:40:34.195Z,186.29
2024-04-15T10:41:33.996Z,181.62
2024-04-15T10:42:33.878Z,190.02
2024-04-15T10:43:33.855Z,188.16
2024-04-15T10:44:34.493Z,188.20
2024-04-15T10:45:33.908Z,189.60
2024-04-15T10:46:34.429Z,186.98
2024-04-15T10:47:34.854Z,192.38
2024-04-15T10:48:33.948Z,185.20
2024-04-15T10:49:34.097Z,185.89
2024-04-15T10:50:33.989Z,189.01
2024-04-15T10:51:34.405Z,187.70
2024-04-15T10:52:34.369Z,187.37
2024-04-15T10:53:35.301Z,185.98
2024-04-15T10:54:34.832Z,183.65
2024-04-15T10:55:34.118Z,185.51
2024-04-15T10:56:34.057Z,186.98
2024-04-15T10:57:34.383Z,189.60
2024-04-15T10:58:34.092Z,187.83
2024-04-15T10:59:34.182Z,188.10
2024-04-15T11:00:34.248Z,193.76
2024-04-15T11:01:34.259Z,196.42
2024-04-15T11:02:35.149Z,199.63
2024-04-15T11:03:57.506Z,197.62
2024-04-15T11:04:34.414Z,197.98
2024-04-15T11:05:34.304Z,198.91
2024-04-15T11:06:34.308Z,198.82
2024-04-15T11:07:34.356Z,190.29
2024-04-15T11:08:34.395Z,192.30
2024-04-15T11:09:34.389Z,189.69
2024-04-15T11:10:34.494Z,188.67
2024-04-15T11:11:34.461Z,183.29
2024-04-15T11:12:34.448Z,186.25
2024-04-15T11:13:34.499Z,184.93
2024-04-15T11:14:34.461Z,185.39
2024-04-15T11:15:34.466Z,186.36
2024-04-15T11:16:34.495Z,185.52
2024-04-15T11:17:34.563Z,185.17
2024-04-15T11:18:34.502Z,182.79
2024-04-15T11:19:34.503Z,181.09
2024-04-15T11:20:34.497Z,182.83
2024-04-15T11:21:34.928Z,182.73
2024-04-15T11:22:35.897Z,184.21
2024-04-15T11:23:34.505Z,184.72
2024-04-15T11:24:34.488Z,181.48
2024-04-15T11:25:34.949Z,182.95
2024-04-15T11:26:34.962Z,177.38
2024-04-15T11:27:35.333Z,177.72
2024-04-15T11:28:34.780Z,174.87
2024-04-15T11:29:41.466Z,178.30
2024-04-15T11:30:35.611Z,178.47
2024-04-15T11:31:34.996Z,179.07
2024-04-15T11:32:34.856Z,177.55
2024-04-15T11:33:34.807Z,171.44
2024-04-15T11:34:34.651Z,167.83
2024-04-15T11:35:34.586Z,160.32
2024-04-15T11:36:35.025Z,157.86
2024-04-15T11:37:34.630Z,158.01
2024-04-15T11:38:34.657Z,153.80
2024-04-15T11:39:34.589Z,148.98
2024-04-15T11:40:34.673Z,142.41
2024-04-15T11:41:34.968Z,140.18
2024-04-15T11:42:34.631Z,131.39
2024-04-15T11:43:34.701Z,126.73
2024-04-15T11:44:34.635Z,118.12
2024-04-15T11:45:34.639Z,111.12
2024-04-15T11:46:34.677Z,106.28
2024-04-15T11:47:34.922Z,105.77
2024-04-15T11:48:34.706Z,106.21
2024-04-15T11:49:35.180Z,103.45
2024-04-15T11:50:34.808Z,105.52
2024-04-15T11:51:34.923Z,112.99
2024-04-15T11:52:34.989Z,116.08
2024-04-15T11:53:35.009Z,121.38
2024-04-15T11:54:35.018Z,125.19
2024-04-15T11:55:34.968Z,127.53
2024-04-15T11:56:35.021Z,129.07
2024-04-15T11:57:35.053Z,129.17
2024-04-15T11:58:35.106Z,129.48
2024-04-15T11:59:35.054Z,131.02
2024-04-15T12:00:35.108Z,128.48
2024-04-15T12:02:59.760Z,126.99
2024-04-15T12:03:35.108Z,127.58
2024-04-15T12:04:35.132Z,130.44
2024-04-15T12:05:35.222Z,134.57
2024-04-15T12:06:35.098Z,138.55
2024-04-15T12:07:35.114Z,144.05
2024-04-15T12:08:35.117Z,146.33
2024-04-15T12:09:35.113Z,142.54
2024-04-15T12:10:35.186Z,139.16
2024-04-15T12:11:35.111Z,137.40
2024-04-15T12:12:35.128Z,135.70
2024-04-15T12:13:35.085Z,132.08
2024-04-15T12:14:35.079Z,130.28
2024-04-15T12:15:35.095Z,128.47
2024-04-15T12:16:35.231Z,128.75
2024-04-15T12:17:35.120Z,129.91
2024-04-15T12:18:35.118Z,129.86
2024-04-15T12:19:35.088Z,131.71
2024-04-15T12:20:35.091Z,132.24
2024-04-15T12:21:35.521Z,131.16
2024-04-15T12:22:35.124Z,128.75
2024-04-15T12:23:35.247Z,126.12
2024-04-15T12:24:36.034Z,128.35
2024-04-15T12:25:35.224Z,125.33
2024-04-15T12:26:35.137Z,124.14
2024-04-15T12:27:38.009Z,121.18
2024-04-15T12:28:35.102Z,121.27
2024-04-15T12:29:35.160Z,121.37
2024-04-15T12:30:35.091Z,122.09
2024-04-15T12:31:35.204Z,122.04
2024-04-15T12:32:35.335Z,124.26
2024-04-15T12:33:35.654Z,126.39